SBTT/TBT METAR and TAF weather

Enter ICAO airport designator
Station Type Date Time Source
SBTT METAR 2019/08/24 17:00 UTC NOAA

SBTT 241700Z 32004KT CAVOK 30/23 Q1015


Station Type Date Time Source
SBTT Decoded METAR 2019/08/24 17:00 UTC NOAA

Station name not available
Aug 24, 2019 - 01:00 PM EDT / 2019.08.24 1700 UTC
Wind: from the NW (320 degrees) at 5 MPH (4 KT):0
Visibility: greater than 7 mile(s):0
Temperature: 86 F (30 C)
Heat index: 93.4 F (34.1 C):1
Dew Point: 73 F (23 C)
Relative Humidity: 66%
Pressure (altimeter): 29.97 in. Hg (1015 hPa)
ob: SBTT 241700Z 32004KT CAVOK 30/23 Q1015
cycle: 17

Station Type Date Time Source
SBTT TAF 2019/08/24 18:20 UTC NOAA

TAF SBTT 241500Z 2418/2518 24005KT 9999 SCT025 TX32/2419Z TN23/2511Z
TEMPO 2418/2424 4000 TSRA BKN015 FEW030CB
TEMPO 2512/2518 4000 TSRA BKN020 FEW030CB
RMK PFV

Example: see airport list